createdAt,value
2023-03-22T00:01:23.342Z,94423.13
2023-03-22T00:03:51.832Z,94417.28
2023-03-22T00:06:19.364Z,94418.25
2023-03-22T00:08:51.293Z,94427.63
2023-03-22T00:11:19.712Z,94426.97
2023-03-22T00:13:47.089Z,94419.56
2023-03-22T00:16:15.209Z,94427.63
2023-03-22T00:18:42.155Z,94423.03
2023-03-22T00:21:13.940Z,94435.66
2023-03-22T00:23:41.424Z,94433.69
2023-03-22T00:26:09.815Z,94427.13
2023-03-22T00:28:37.009Z,94418.44
2023-03-22T00:31:05.411Z,94417.63
2023-03-22T00:33:32.844Z,94423.53
2023-03-22T00:36:06.068Z,94407.81
2023-03-22T00:38:43.861Z,94416.47
2023-03-22T00:41:17.040Z,94409.28
2023-03-22T00:43:45.264Z,94408.28
2023-03-22T00:46:13.893Z,94411.09
2023-03-22T00:48:40.720Z,94408.94
2023-03-22T00:51:08.944Z,94409.94
2023-03-22T00:53:42.389Z,94398.13
2023-03-22T00:56:14.332Z,94406.97
2023-03-22T00:58:42.697Z,94403.03
2023-03-22T01:01:13.930Z,94399.59
2023-03-22T01:03:42.800Z,94390.72
2023-03-22T01:06:11.055Z,94391.53
2023-03-22T01:08:38.856Z,94395.03
2023-03-22T01:11:07.411Z,94393.41
2023-03-22T01:13:37.571Z,94391.44
2023-03-22T01:16:08.481Z,94401.75
2023-03-22T01:18:36.097Z,94396.34
2023-03-22T01:21:03.106Z,94386.84
2023-03-22T01:23:29.929Z,94394.34
2023-03-22T01:25:56.663Z,94397.44
2023-03-22T01:28:25.798Z,94385.13
2023-03-22T01:30:54.418Z,94379.53
2023-03-22T01:33:21.296Z,94388.53
2023-03-22T01:35:48.111Z,94385.06
2023-03-22T01:38:14.936Z,94384.19
2023-03-22T01:40:42.230Z,94376.94
2023-03-22T01:43:17.359Z,94377.09
2023-03-22T01:45:48.512Z,94363.31
2023-03-22T01:48:26.020Z,94367.06
2023-03-22T01:51:07.295Z,94376.31
2023-03-22T01:53:41.142Z,94373.97
2023-03-22T01:56:08.942Z,94368.69
2023-03-22T01:58:37.554Z,94369.31
2023-03-22T02:01:06.835Z,94366.50
2023-03-22T02:03:59.471Z,94368.41
2023-03-22T02:06:27.000Z,94370.13
2023-03-22T02:08:58.052Z,94364.34
2023-03-22T02:11:42.291Z,94360.78
2023-03-22T02:15:01.858Z,94358.56
2023-03-22T02:18:01.785Z,94356.34
2023-03-22T02:20:49.822Z,94351.84
2023-03-22T02:23:42.856Z,94354.78
2023-03-22T02:26:53.477Z,94357.41
2023-03-22T02:29:40.562Z,94352.31
2023-03-22T02:32:19.288Z,94343.28
2023-03-22T02:35:27.739Z,94339.84
2023-03-22T02:38:45.957Z,94342.47
2023-03-22T02:41:33.858Z,94347.03
2023-03-22T02:44:37.069Z,94356.25
2023-03-22T02:47:40.337Z,94351.47
2023-03-22T02:50:15.453Z,94339.94
2023-03-22T02:53:06.175Z,94348.66
2023-03-22T02:56:06.765Z,94356.13
2023-03-22T02:58:46.032Z,94356.84
2023-03-22T03:01:26.154Z,94357.47
2023-03-22T03:03:59.934Z,94356.28
2023-03-22T03:06:32.637Z,94364.69
2023-03-22T03:09:05.185Z,94359.28
2023-03-22T03:11:32.776Z,94352.69
2023-03-22T03:13:59.590Z,94349.66
2023-03-22T03:16:29.528Z,94347.09
2023-03-22T03:19:29.024Z,94354.38
2023-03-22T03:22:10.032Z,94340.97
2023-03-22T03:24:45.229Z,94350.97
2023-03-22T03:27:27.482Z,94357.97
2023-03-22T03:30:12.608Z,94346.72
2023-03-22T03:32:47.876Z,94346.75
2023-03-22T03:35:25.599Z,94351.00
2023-03-22T03:38:10.011Z,94342.69
2023-03-22T03:40:51.229Z,94352.97
2023-03-22T03:43:19.053Z,94343.50
2023-03-22T03:45:46.232Z,94355.16
2023-03-22T03:48:22.650Z,94354.75
2023-03-22T03:50:52.764Z,94345.16
2023-03-22T03:53:19.507Z,94355.03
2023-03-22T03:55:46.774Z,94356.81
2023-03-22T03:58:13.505Z,94355.72
2023-03-22T04:00:40.479Z,94360.66
2023-03-22T04:03:07.446Z,94359.13
2023-03-22T04:05:34.393Z,94364.88
2023-03-22T04:08:01.259Z,94361.56
2023-03-22T04:10:28.016Z,94360.47
2023-03-22T04:12:54.844Z,94366.75
2023-03-22T04:15:21.697Z,94358.97
2023-03-22T04:17:48.494Z,94354.13
2023-03-22T04:20:15.922Z,94354.66
2023-03-22T04:22:43.087Z,94367.28
2023-03-22T04:25:12.924Z,94370.31
2023-03-22T04:27:40.958Z,94354.09
2023-03-22T04:30:18.952Z,94358.53
2023-03-22T04:32:50.005Z,94373.16
2023-03-22T04:35:17.642Z,94373.38
2023-03-22T04:37:45.800Z,94365.56
2023-03-22T04:40:16.204Z,94357.50
2023-03-22T04:42:44.321Z,94353.56
2023-03-22T04:45:13.228Z,94357.81
2023-03-22T04:47:40.401Z,94354.94
2023-03-22T04:50:08.374Z,94367.06
2023-03-22T04:52:35.355Z,94364.72
2023-03-22T04:55:02.268Z,94364.72
2023-03-22T04:57:29.076Z,94362.41
2023-03-22T04:59:55.993Z,94381.47
2023-03-22T05:02:22.874Z,94368.53
2023-03-22T05:04:49.676Z,94372.06
2023-03-22T05:07:16.517Z,94372.06
2023-03-22T05:09:43.275Z,94387.63
2023-03-22T05:12:10.028Z,94386.88
2023-03-22T05:14:36.860Z,94382.03
2023-03-22T05:17:04.106Z,94385.44
2023-03-22T05:19:31.556Z,94375.97
2023-03-22T05:22:02.248Z,94386.69
2023-03-22T05:24:33.057Z,94384.09
2023-03-22T05:27:03.415Z,94376.13
2023-03-22T05:29:37.047Z,94374.47
2023-03-22T05:32:04.690Z,94371.75
2023-03-22T05:34:36.007Z,94317.66
2023-03-22T05:37:04.244Z,94309.88
2023-03-22T05:40:10.581Z,94306.09
2023-03-22T05:49:52.826Z,94377.81
2023-03-22T05:53:08.994Z,94323.56
2023-03-22T06:01:53.676Z,94344.88
2023-03-22T06:04:21.446Z,94332.19
2023-03-22T06:06:49.355Z,94314.94
2023-03-22T06:09:18.080Z,94377.84
2023-03-22T06:11:45.615Z,94338.38
2023-03-22T06:14:12.804Z,94316.03
2023-03-22T06:16:39.645Z,94369.59
2023-03-22T06:19:07.024Z,94345.53
2023-03-22T06:21:33.799Z,94361.94
2023-03-22T06:24:00.648Z,94354.53
2023-03-22T06:26:27.531Z,94369.84
2023-03-22T06:28:54.442Z,94350.72
2023-03-22T06:31:21.328Z,94369.72
2023-03-22T06:33:48.243Z,94344.00
2023-03-22T06:36:15.038Z,94353.38
2023-03-22T06:38:42.026Z,94358.59
2023-03-22T06:41:08.836Z,94346.81
2023-03-22T06:43:35.674Z,94361.78
2023-03-22T06:46:02.490Z,94365.63
2023-03-22T06:48:29.519Z,94353.28
2023-03-22T06:50:56.397Z,94349.81
2023-03-22T06:53:23.242Z,94362.16
2023-03-22T06:55:50.137Z,94354.34
2023-03-22T06:58:16.948Z,94328.00
2023-03-22T07:00:43.872Z,94340.63
2023-03-22T07:03:10.837Z,94368.47
2023-03-22T07:05:37.670Z,94338.56
2023-03-22T07:08:04.691Z,94367.81
2023-03-22T07:10:31.497Z,94322.72
2023-03-22T07:12:58.469Z,94349.66
2023-03-22T07:15:25.248Z,94364.19
2023-03-22T07:17:52.452Z,94370.69
2023-03-22T07:20:20.143Z,94359.31
2023-03-22T07:22:47.117Z,94355.81
2023-03-22T07:25:13.851Z,94355.13
2023-03-22T07:27:40.763Z,94352.00
2023-03-22T07:30:09.807Z,94353.91
2023-03-22T07:32:36.721Z,94344.88
2023-03-22T07:35:03.585Z,94356.31
2023-03-22T07:37:30.700Z,94366.41
2023-03-22T07:39:57.519Z,94361.69
2023-03-22T07:42:24.283Z,94358.41
2023-03-22T07:44:51.236Z,94355.44
2023-03-22T07:47:27.228Z,94347.78
2023-03-22T07:50:01.510Z,94351.34
2023-03-22T07:52:28.295Z,94347.31
2023-03-22T07:54:55.031Z,94339.97
2023-03-22T07:57:21.812Z,94352.97
2023-03-22T07:59:48.591Z,94338.69
2023-03-22T08:02:16.286Z,94334.53
2023-03-22T08:04:43.133Z,94321.22
2023-03-22T08:07:10.182Z,94318.03
2023-03-22T08:09:37.775Z,94329.56
2023-03-22T08:12:04.982Z,94327.00
2023-03-22T08:14:36.643Z,94323.06
2023-03-22T08:17:06.150Z,94324.81
2023-03-22T08:19:34.326Z,94324.78
2023-03-22T08:22:02.114Z,94324.50
2023-03-22T08:24:28.989Z,94330.47
2023-03-22T08:26:56.527Z,94325.88
2023-03-22T08:29:23.820Z,94317.91
2023-03-22T08:31:51.492Z,94328.06
2023-03-22T08:34:18.386Z,94334.44
2023-03-22T08:36:45.349Z,94328.69
2023-03-22T08:39:12.376Z,94329.53
2023-03-22T08:41:40.347Z,94346.78
2023-03-22T08:44:07.448Z,94328.47
2023-03-22T08:46:34.424Z,94331.44
2023-03-22T08:49:02.764Z,94330.00
2023-03-22T08:51:31.513Z,94327.59
2023-03-22T08:54:00.356Z,94327.88
2023-03-22T08:56:27.731Z,94304.31
2023-03-22T08:58:54.581Z,94304.88
2023-03-22T09:01:21.782Z,94331.94
2023-03-22T09:03:48.718Z,94342.72
2023-03-22T09:06:15.594Z,94327.72
2023-03-22T09:08:42.563Z,94329.88
2023-03-22T09:11:10.992Z,94324.19
2023-03-22T09:13:38.157Z,94296.59
2023-03-22T09:16:08.929Z,94326.75
2023-03-22T09:18:39.944Z,94322.47
2023-03-22T09:21:08.709Z,94310.13
2023-03-22T09:23:38.059Z,94316.16
2023-03-22T09:26:08.933Z,94324.72
2023-03-22T09:28:36.812Z,94299.63
2023-03-22T09:31:08.003Z,94295.84
2023-03-22T09:33:36.712Z,94312.44
2023-03-22T09:36:04.354Z,94309.38
2023-03-22T09:38:33.757Z,94256.03
2023-03-22T09:41:12.365Z,94283.38
2023-03-22T09:43:45.059Z,94289.97
2023-03-22T09:46:29.970Z,94283.00
2023-03-22T09:49:00.018Z,94291.56
2023-03-22T09:51:45.479Z,94299.31
2023-03-22T09:54:34.615Z,94287.13
2023-03-22T09:57:37.602Z,94259.78
2023-03-22T10:00:21.143Z,94273.63
2023-03-22T10:03:10.792Z,94282.34
2023-03-22T10:06:14.289Z,94264.81
2023-03-22T10:09:01.904Z,94264.75
2023-03-22T10:11:50.056Z,94256.03
2023-03-22T10:14:42.549Z,94255.22
2023-03-22T10:17:18.783Z,94248.00
2023-03-22T10:20:09.558Z,94211.09
2023-03-22T10:22:41.141Z,94240.88
2023-03-22T10:25:09.994Z,94236.81
2023-03-22T10:27:38.130Z,94229.78
2023-03-22T10:30:20.273Z,94208.63
2023-03-22T10:32:58.385Z,94211.06
2023-03-22T10:35:26.091Z,94211.75
2023-03-22T10:37:55.367Z,94211.16
2023-03-22T10:40:32.183Z,94227.16
2023-03-22T10:43:22.648Z,94243.81
2023-03-22T10:45:52.289Z,94226.00
2023-03-22T10:48:33.260Z,94229.34
2023-03-22T10:51:04.638Z,94206.66
2023-03-22T10:53:46.883Z,94237.59
2023-03-22T10:56:18.864Z,94239.25
2023-03-22T10:58:47.163Z,94228.97
2023-03-22T11:01:17.362Z,94228.34
2023-03-22T11:03:49.903Z,94227.16
2023-03-22T11:06:30.068Z,94208.19
2023-03-22T11:09:22.473Z,94204.47
2023-03-22T11:12:00.840Z,94208.94
2023-03-22T11:14:37.003Z,94233.16
2023-03-22T11:17:06.460Z,94215.94
2023-03-22T11:19:40.015Z,94229.56
2023-03-22T11:22:25.746Z,94199.72
2023-03-22T11:24:52.869Z,94202.34
2023-03-22T11:27:31.342Z,94200.03
2023-03-22T11:30:09.589Z,94171.47
2023-03-22T11:32:39.331Z,94190.06
2023-03-22T11:35:28.019Z,94200.19
2023-03-22T11:37:56.492Z,94160.50
2023-03-22T11:40:32.849Z,94167.13
2023-03-22T11:43:26.993Z,94171.09
2023-03-22T11:45:58.154Z,94148.16
2023-03-22T11:48:30.151Z,94164.41
2023-03-22T11:51:07.502Z,94144.19
2023-03-22T11:53:41.143Z,94149.06
2023-03-22T11:56:12.775Z,94182.69
2023-03-22T11:58:42.370Z,94187.22
2023-03-22T12:01:19.860Z,94183.88
2023-03-22T12:03:52.650Z,94165.53
2023-03-22T12:06:29.502Z,94150.25
2023-03-22T12:09:10.713Z,94143.75
2023-03-22T12:11:46.005Z,94106.22
2023-03-22T12:14:51.274Z,94147.16
2023-03-22T12:17:28.428Z,94083.13
2023-03-22T12:20:07.015Z,94144.09
2023-03-22T12:22:41.931Z,94139.53
2023-03-22T12:25:23.166Z,94130.03
2023-03-22T12:28:16.494Z,94136.28
2023-03-22T12:30:56.525Z,94151.34
2023-03-22T12:33:41.448Z,94141.31
2023-03-22T12:36:14.853Z,94136.31
2023-03-22T12:38:49.957Z,94121.44
2023-03-22T12:41:26.428Z,94138.53
2023-03-22T12:43:56.132Z,94130.72
2023-03-22T12:46:26.775Z,94125.94
2023-03-22T12:49:16.519Z,94138.09
2023-03-22T12:51:46.846Z,94102.72
2023-03-22T12:54:16.953Z,94110.94
2023-03-22T12:56:46.218Z,94061.16
2023-03-22T12:59:26.791Z,94114.16
2023-03-22T13:02:10.128Z,94114.66
2023-03-22T13:04:37.018Z,94124.69
2023-03-22T13:07:18.044Z,94100.78
2023-03-22T13:09:50.841Z,94130.25
2023-03-22T13:12:17.574Z,94135.00
2023-03-22T13:15:01.009Z,94110.06
2023-03-22T13:17:27.876Z,94129.97
2023-03-22T13:20:24.001Z,94122.72
2023-03-22T13:22:51.083Z,94122.91
2023-03-22T13:25:19.124Z,94112.41
2023-03-22T13:27:46.018Z,94112.63
2023-03-22T13:30:28.108Z,94106.50
2023-03-22T13:33:20.779Z,94102.03
2023-03-22T13:35:54.072Z,94113.88
2023-03-22T13:38:25.216Z,94091.19
2023-03-22T13:41:00.875Z,94113.81
2023-03-22T13:43:53.078Z,94094.50
2023-03-22T13:46:22.890Z,94111.03
2023-03-22T13:48:53.013Z,94106.66
2023-03-22T13:51:30.530Z,94084.25
2023-03-22T13:54:18.196Z,94099.78
2023-03-22T13:56:56.566Z,94100.97
2023-03-22T13:59:32.324Z,94096.84
2023-03-22T14:02:30.152Z,94079.34
2023-03-22T14:05:04.260Z,94074.56
2023-03-22T14:07:44.484Z,94075.03
2023-03-22T14:10:39.073Z,94085.03
2023-03-22T14:13:16.877Z,94094.53
2023-03-22T14:15:51.692Z,94082.22
2023-03-22T14:18:25.977Z,94075.34
2023-03-22T14:21:39.019Z,94077.91
2023-03-22T14:52:37.081Z,94041.72
2023-03-22T14:55:11.621Z,94055.03
2023-03-22T14:57:47.441Z,94012.53
2023-03-22T15:00:19.426Z,94038.72
2023-03-22T15:03:03.838Z,94048.69
2023-03-22T15:05:40.676Z,94041.16
2023-03-22T15:08:17.381Z,94049.38
2023-03-22T15:10:49.442Z,94041.56
2023-03-22T15:13:17.730Z,94033.47
2023-03-22T15:15:46.175Z,94032.88
2023-03-22T15:18:17.279Z,94019.16
2023-03-22T15:20:47.646Z,94039.59
2023-03-22T15:23:16.245Z,94029.28
2023-03-22T15:25:49.104Z,94011.31
2023-03-22T15:28:21.533Z,94002.91
2023-03-22T15:30:53.047Z,94009.38
2023-03-22T15:33:27.935Z,94026.91
2023-03-22T15:35:56.721Z,94039.75
2023-03-22T15:38:46.722Z,94021.94
2023-03-22T15:41:26.297Z,94021.78
2023-03-22T15:44:25.844Z,94014.88
2023-03-22T15:47:06.259Z,94035.16
2023-03-22T15:49:33.097Z,94045.06
2023-03-22T15:52:12.931Z,94038.28
2023-03-22T15:55:11.107Z,94028.31
2023-03-22T15:57:52.976Z,94018.63
2023-03-22T16:00:21.955Z,94031.38
2023-03-22T16:03:15.281Z,94016.34
2023-03-22T16:05:45.872Z,94020.69
2023-03-22T16:08:15.615Z,94030.34
2023-03-22T16:10:47.085Z,94029.16
2023-03-22T16:13:25.194Z,94019.81
2023-03-22T16:15:52.755Z,94032.22
2023-03-22T16:18:22.213Z,94032.38
2023-03-22T16:20:51.368Z,94030.34
2023-03-22T16:23:22.133Z,94024.66
2023-03-22T16:25:49.665Z,94033.16
2023-03-22T16:28:16.800Z,94016.56
2023-03-22T16:30:45.086Z,94032.53
2023-03-22T16:33:14.999Z,94048.44
2023-03-22T16:35:42.327Z,94019.34
2023-03-22T16:38:14.717Z,94036.25
2023-03-22T16:40:52.575Z,94050.16
2023-03-22T16:43:20.394Z,94040.91
2023-03-22T16:45:49.018Z,94044.16
2023-03-22T16:48:16.364Z,94018.88
2023-03-22T16:50:46.143Z,94050.63
2023-03-22T16:53:16.971Z,94037.31
2023-03-22T16:55:46.309Z,94048.53
2023-03-22T16:58:14.572Z,94054.88
2023-03-22T17:00:41.943Z,94048.59
2023-03-22T17:03:13.243Z,94048.88
2023-03-22T17:05:40.155Z,94066.59
2023-03-22T17:08:18.431Z,94060.22
2023-03-22T17:10:46.443Z,94061.78
2023-03-22T17:13:18.057Z,94075.81
2023-03-22T17:15:48.684Z,94080.81
2023-03-22T17:18:16.023Z,94087.84
2023-03-22T17:20:46.698Z,94081.03
2023-03-22T17:23:14.670Z,94083.53
2023-03-22T17:25:44.809Z,94085.19
2023-03-22T17:28:13.122Z,94078.00
2023-03-22T17:30:40.669Z,94078.75
2023-03-22T17:33:09.817Z,94092.00
2023-03-22T17:35:37.427Z,94082.53
2023-03-22T17:38:04.894Z,94076.50
2023-03-22T17:40:45.227Z,94100.78
2023-03-22T17:43:18.152Z,94090.47
2023-03-22T17:48:18.404Z,94114.41
2023-03-22T17:50:45.425Z,94112.22
2023-03-22T17:53:29.140Z,94093.06
2023-03-22T17:56:30.946Z,94108.34
2023-03-22T17:58:46.983Z,94117.25
2023-03-22T18:01:18.810Z,94124.91
2023-03-22T18:03:46.033Z,94116.25
2023-03-22T18:06:12.966Z,94113.19
2023-03-22T18:08:40.019Z,94116.84
2023-03-22T18:11:07.167Z,94133.63
2023-03-22T18:13:35.472Z,94119.69
2023-03-22T18:16:02.414Z,94128.03
2023-03-22T18:18:34.267Z,94137.22
2023-03-22T18:21:03.787Z,94130.25
2023-03-22T18:23:31.172Z,94122.06
2023-03-22T18:26:01.843Z,94127.00
2023-03-22T18:28:30.483Z,94119.00
2023-03-22T18:30:58.252Z,94121.69
2023-03-22T18:33:27.454Z,94119.59
2023-03-22T18:35:59.024Z,94121.22
2023-03-22T18:38:56.613Z,94125.22
2023-03-22T18:41:37.678Z,94151.81
2023-03-22T18:44:02.005Z,94129.00
2023-03-22T18:46:28.904Z,94147.03
2023-03-22T18:48:55.914Z,94123.69
2023-03-22T18:51:22.909Z,94113.91
2023-03-22T18:53:50.993Z,94140.88
2023-03-22T18:56:18.816Z,94110.34
2023-03-22T18:58:46.076Z,94148.56
2023-03-22T19:01:13.066Z,94149.94
2023-03-22T19:03:40.467Z,94111.03
2023-03-22T19:06:15.563Z,94124.28
2023-03-22T19:08:44.068Z,94145.69
2023-03-22T19:11:11.965Z,94144.75
2023-03-22T19:14:06.135Z,94132.91
2023-03-22T19:16:26.196Z,94151.31
2023-03-22T19:18:53.081Z,94126.78
2023-03-22T19:21:30.418Z,94116.28
2023-03-22T19:23:59.125Z,94116.19
2023-03-22T19:26:27.967Z,94120.13
2023-03-22T19:28:59.192Z,94150.69
2023-03-22T19:31:31.422Z,94124.72
2023-03-22T19:33:59.715Z,94121.75
2023-03-22T19:36:27.879Z,94132.75
2023-03-22T19:38:58.616Z,94130.38
2023-03-22T19:43:59.053Z,94146.69
2023-03-22T19:46:27.070Z,94138.25
2023-03-22T19:48:53.948Z,94129.63
2023-03-22T19:51:21.008Z,94127.03
2023-03-22T19:54:18.632Z,94141.31
2023-03-22T19:56:35.328Z,94152.34
2023-03-22T19:59:03.387Z,94118.16
2023-03-22T20:01:30.329Z,94124.56
2023-03-22T20:03:57.435Z,94135.47
2023-03-22T20:06:25.074Z,94128.88
2023-03-22T20:08:51.956Z,94107.75
2023-03-22T20:11:27.618Z,94121.56
2023-03-22T20:14:01.284Z,94106.69
2023-03-22T20:16:28.525Z,94135.03
2023-03-22T20:18:55.651Z,94148.47
2023-03-22T20:21:23.381Z,94119.34
2023-03-22T20:23:50.936Z,94156.66
2023-03-22T20:26:18.823Z,94158.63
2023-03-22T20:28:46.729Z,94128.84
2023-03-22T20:31:16.521Z,94153.06
2023-03-22T20:33:44.200Z,94148.50
2023-03-22T20:36:12.608Z,94115.59
2023-03-22T20:38:44.213Z,94158.16
2023-03-22T20:41:15.065Z,94138.69
2023-03-22T20:43:44.624Z,94151.44
2023-03-22T20:46:14.182Z,94088.28
2023-03-22T20:48:41.496Z,94156.69
2023-03-22T20:51:08.629Z,94152.91
2023-03-22T20:53:35.626Z,94121.00
2023-03-22T20:56:02.589Z,94120.19
2023-03-22T20:58:29.739Z,94138.19
2023-03-22T21:00:56.652Z,94145.69
2023-03-22T21:03:24.169Z,94087.63
2023-03-22T21:05:51.345Z,94129.00
2023-03-22T21:08:18.363Z,94153.69
2023-03-22T21:10:45.631Z,94130.31
2023-03-22T21:13:13.269Z,94138.66
2023-03-22T21:15:42.812Z,94133.06
2023-03-22T21:18:10.694Z,94130.47
2023-03-22T21:20:37.910Z,94110.53
2023-03-22T21:23:05.644Z,94165.66
2023-03-22T21:25:32.509Z,94163.38
2023-03-22T21:27:59.867Z,94137.06
2023-03-22T21:30:27.020Z,94153.88
2023-03-22T21:32:54.028Z,94129.19
2023-03-22T21:35:21.686Z,94140.63
2023-03-22T21:37:48.561Z,94154.72
2023-03-22T21:40:17.873Z,94133.13
2023-03-22T21:42:46.916Z,94158.97
2023-03-22T21:45:15.001Z,94156.34
2023-03-22T21:47:43.798Z,94152.25
2023-03-22T21:50:11.528Z,94117.59
2023-03-22T21:52:38.440Z,94148.50
2023-03-22T21:55:06.636Z,94138.03
2023-03-22T21:57:33.515Z,94128.19
2023-03-22T22:00:00.687Z,94142.28
2023-03-22T22:02:27.829Z,94138.69
2023-03-22T22:04:54.878Z,94154.88
2023-03-22T22:07:21.958Z,94131.47
2023-03-22T22:09:49.040Z,94108.41
2023-03-22T22:12:16.985Z,94146.53
2023-03-22T22:14:44.470Z,94139.31
2023-03-22T22:17:12.604Z,94141.63
2023-03-22T22:19:40.820Z,94141.28
2023-03-22T22:22:08.012Z,94136.50
2023-03-22T22:24:35.068Z,94156.31
2023-03-22T22:27:02.157Z,94159.59
2023-03-22T22:29:29.037Z,94131.63
2023-03-22T22:31:56.282Z,94122.63
2023-03-22T22:34:23.328Z,94144.88
2023-03-22T22:36:50.588Z,94134.41
2023-03-22T22:39:17.480Z,94124.06
2023-03-22T22:41:44.742Z,94141.28
2023-03-22T22:44:11.924Z,94151.53
2023-03-22T22:46:39.025Z,94153.53
2023-03-22T22:49:06.088Z,94157.44
2023-03-22T22:51:33.395Z,94168.59
2023-03-22T22:54:01.097Z,94148.09
2023-03-22T22:56:29.375Z,94148.09
2023-03-22T22:58:56.374Z,94140.63
2023-03-22T23:01:23.287Z,94159.22
2023-03-22T23:03:50.528Z,94169.06
2023-03-22T23:06:22.936Z,94144.53
2023-03-22T23:08:55.620Z,94164.84
2023-03-22T23:11:25.936Z,94139.78
2023-03-22T23:13:53.918Z,94152.06
2023-03-22T23:16:25.173Z,94167.44
2023-03-22T23:18:58.412Z,94149.13
2023-03-22T23:21:34.527Z,94163.16
2023-03-22T23:24:01.495Z,94140.09
2023-03-22T23:26:28.798Z,94124.69
2023-03-22T23:28:59.361Z,94133.03
2023-03-22T23:31:32.078Z,94105.72
2023-03-22T23:34:03.781Z,94161.19
2023-03-22T23:36:32.770Z,94160.41
2023-03-22T23:39:04.200Z,94137.00
2023-03-22T23:41:33.375Z,94128.84
2023-03-22T23:44:00.703Z,94136.50
2023-03-22T23:46:29.671Z,94143.25
2023-03-22T23:48:59.972Z,94110.69
2023-03-22T23:51:27.987Z,94139.63
2023-03-22T23:53:55.169Z,94150.09
2023-03-22T23:56:23.086Z,94152.22
2023-03-22T23:58:52.375Z,94146.50
